createdAt,value
2018-09-13T00:01:48.475Z,62.40
2018-09-13T00:03:51.490Z,62.30
2018-09-13T00:05:54.528Z,61.90
2018-09-13T00:07:57.553Z,62.40
2018-09-13T00:10:01.973Z,62.40
2018-09-13T00:12:05.157Z,61.60
2018-09-13T00:14:08.160Z,61.70
2018-09-13T00:16:11.197Z,61.80
2018-09-13T00:18:14.416Z,62.40
2018-09-13T00:20:17.438Z,62.70
2018-09-13T00:22:20.458Z,62.80
2018-09-13T00:24:23.921Z,62.90
2018-09-13T00:26:26.919Z,61.80
2018-09-13T00:28:31.413Z,62.30
2018-09-13T00:30:34.407Z,61.50
2018-09-13T00:32:37.371Z,62.10
2018-09-13T00:34:40.347Z,61.40
2018-09-13T00:36:43.362Z,61.40
2018-09-13T00:38:46.352Z,62.60
2018-09-13T00:40:49.346Z,62.20
2018-09-13T00:42:52.349Z,63.10
2018-09-13T00:44:55.459Z,62.00
2018-09-13T00:46:59.990Z,61.60
2018-09-13T00:49:03.334Z,62.20
2018-09-13T00:51:06.344Z,62.90
2018-09-13T00:53:09.347Z,64.10
2018-09-13T00:55:12.402Z,64.20
2018-09-13T00:57:15.446Z,63.20
2018-09-13T00:59:18.436Z,64.20
2018-09-13T01:01:21.626Z,62.90
2018-09-13T01:03:24.750Z,63.40
2018-09-13T01:05:27.743Z,63.10
2018-09-13T01:07:32.264Z,62.50
2018-09-13T01:09:35.281Z,62.10
2018-09-13T01:11:38.309Z,63.30
2018-09-13T01:13:41.299Z,63.60
2018-09-13T01:15:44.393Z,63.20
2018-09-13T01:17:47.431Z,63.40
2018-09-13T01:19:50.460Z,63.30
2018-09-13T01:21:53.640Z,63.10
2018-09-13T01:23:56.692Z,63.00
2018-09-13T01:26:01.199Z,63.50
2018-09-13T01:28:04.613Z,63.40
2018-09-13T01:30:07.719Z,63.20
2018-09-13T01:32:10.700Z,63.80
2018-09-13T01:34:13.700Z,63.80
2018-09-13T01:36:16.679Z,63.20
2018-09-13T01:38:19.744Z,63.70
2018-09-13T01:40:22.758Z,62.80
2018-09-13T01:42:25.777Z,64.20
2018-09-13T01:44:30.795Z,63.10
2018-09-13T01:46:33.799Z,63.60
2018-09-13T01:48:36.838Z,63.20
2018-09-13T01:50:39.814Z,62.50
2018-09-13T01:52:42.783Z,63.30
2018-09-13T01:54:45.896Z,62.60
2018-09-13T01:56:48.859Z,62.60
2018-09-13T01:58:51.831Z,63.30
2018-09-13T02:00:55.019Z,62.40
2018-09-13T02:02:58.040Z,62.40
2018-09-13T02:05:02.076Z,62.70
2018-09-13T02:07:05.119Z,63.30
2018-09-13T02:09:09.442Z,63.20
2018-09-13T02:11:12.467Z,62.80
2018-09-13T02:13:15.442Z,63.00
2018-09-13T02:15:18.419Z,63.10
2018-09-13T02:17:21.779Z,62.10
2018-09-13T02:19:24.783Z,62.60
2018-09-13T02:21:27.772Z,62.20
2018-09-13T02:23:31.997Z,62.00
2018-09-13T02:25:34.991Z,61.20
2018-09-13T02:27:37.992Z,61.50
2018-09-13T02:29:41.026Z,61.80
2018-09-13T02:31:44.041Z,61.30
2018-09-13T02:33:47.104Z,61.20
2018-09-13T02:35:50.147Z,61.10
2018-09-13T02:37:53.164Z,61.50
2018-09-13T02:39:56.149Z,61.10
2018-09-13T02:42:00.614Z,61.60
2018-09-13T02:44:03.826Z,61.70
2018-09-13T02:46:07.184Z,61.90
2018-09-13T02:48:10.174Z,61.80
2018-09-13T02:50:13.269Z,61.50
2018-09-13T02:52:16.278Z,61.60
2018-09-13T02:54:19.295Z,61.80
2018-09-13T02:56:22.336Z,61.60
2018-09-13T02:58:25.407Z,61.80
2018-09-13T03:00:30.191Z,61.70
2018-09-13T03:02:33.403Z,61.70
2018-09-13T03:04:36.391Z,61.80
2018-09-13T03:06:39.398Z,61.40
2018-09-13T03:08:42.468Z,61.50
2018-09-13T03:10:45.463Z,61.60
2018-09-13T03:12:48.594Z,62.00
2018-09-13T03:14:51.643Z,61.70
2018-09-13T03:16:54.670Z,61.40
2018-09-13T03:18:57.651Z,61.70
2018-09-13T03:21:02.227Z,61.60
2018-09-13T03:23:05.226Z,61.80
2018-09-13T03:25:08.232Z,61.90
2018-09-13T03:27:11.230Z,61.80
2018-09-13T03:29:14.282Z,62.30
2018-09-13T03:31:17.291Z,61.70
2018-09-13T03:33:20.346Z,62.40
2018-09-13T03:35:23.403Z,62.20
2018-09-13T03:37:26.412Z,62.20
2018-09-13T03:39:31.023Z,62.80
2018-09-13T03:41:34.019Z,62.70
2018-09-13T03:43:37.466Z,62.30
2018-09-13T03:45:40.707Z,62.90
2018-09-13T03:47:43.755Z,62.70
2018-09-13T03:49:46.744Z,62.50
2018-09-13T03:51:49.853Z,62.40
2018-09-13T03:53:52.880Z,62.40
2018-09-13T03:55:56.178Z,62.40
2018-09-13T03:58:00.621Z,61.80
2018-09-13T04:00:03.832Z,62.50
2018-09-13T04:02:07.140Z,62.80
2018-09-13T04:04:10.194Z,62.50
2018-09-13T04:06:13.211Z,62.40
2018-09-13T04:08:16.707Z,62.80
2018-09-13T04:14:52.167Z,62.80
2018-09-13T04:16:55.227Z,63.00
2018-09-13T04:18:59.584Z,62.90
2018-09-13T04:21:02.628Z,63.40
2018-09-13T04:23:05.781Z,62.70
2018-09-13T04:25:09.459Z,63.30
2018-09-13T04:27:12.969Z,62.90
2018-09-13T04:29:15.991Z,63.10
2018-09-13T04:31:19.066Z,63.60
2018-09-13T04:33:22.056Z,63.80
2018-09-13T04:35:25.099Z,63.60
2018-09-13T04:37:30.196Z,63.20
2018-09-13T04:39:33.191Z,63.20
2018-09-13T04:41:36.188Z,63.80
2018-09-13T04:43:39.396Z,63.70
2018-09-13T04:45:42.623Z,63.90
2018-09-13T04:47:45.660Z,63.80
2018-09-13T04:49:48.707Z,63.60
2018-09-13T04:51:52.045Z,64.10
2018-09-13T04:53:55.065Z,63.50
2018-09-13T04:55:59.831Z,64.10
2018-09-13T04:58:02.853Z,64.10
2018-09-13T05:00:05.902Z,63.90
2018-09-13T05:02:08.886Z,63.90
2018-09-13T05:04:12.193Z,63.50
2018-09-13T05:06:15.148Z,64.50
2018-09-13T05:08:18.111Z,64.00
2018-09-13T05:10:21.092Z,63.90
2018-09-13T05:12:24.035Z,63.80
2018-09-13T05:14:27.031Z,63.80
2018-09-13T05:16:31.732Z,64.00
2018-09-13T05:18:34.713Z,63.80
2018-09-13T05:20:37.674Z,63.90
2018-09-13T05:22:40.672Z,63.80
2018-09-13T05:24:43.630Z,63.70
2018-09-13T05:26:46.637Z,63.70
2018-09-13T05:28:49.625Z,63.60
2018-09-13T05:30:52.659Z,63.80
2018-09-13T05:32:55.675Z,63.70
2018-09-13T05:35:00.187Z,62.90
2018-09-13T05:37:03.181Z,63.60
2018-09-13T05:39:10.147Z,63.90
2018-09-13T05:41:13.617Z,64.00
2018-09-13T05:43:16.703Z,64.10
2018-09-13T05:45:19.662Z,64.10
2018-09-13T05:47:22.659Z,64.00
2018-09-13T05:49:25.935Z,64.20
2018-09-13T05:51:30.648Z,64.20
2018-09-13T05:53:33.652Z,64.60
2018-09-13T05:55:36.659Z,64.40
2018-09-13T05:57:39.717Z,64.30
2018-09-13T05:59:42.692Z,64.60
2018-09-13T06:01:45.732Z,64.50
2018-09-13T06:03:48.704Z,64.80
2018-09-13T06:05:51.693Z,64.40
2018-09-13T06:07:54.991Z,64.40
2018-09-13T06:09:57.982Z,64.60
2018-09-13T06:12:02.029Z,64.40
2018-09-13T06:14:05.496Z,64.40
2018-09-13T06:16:08.527Z,64.50
2018-09-13T06:18:11.656Z,64.50
2018-09-13T06:20:14.642Z,64.50
2018-09-13T06:22:17.577Z,64.40
2018-09-13T06:24:20.558Z,64.40
2018-09-13T06:26:23.541Z,64.00
2018-09-13T06:28:26.490Z,63.70
2018-09-13T06:30:30.713Z,63.80
2018-09-13T06:32:33.828Z,63.60
2018-09-13T06:34:36.824Z,63.60
2018-09-13T06:36:39.928Z,64.40
2018-09-13T06:38:42.943Z,64.30
2018-09-13T06:40:45.999Z,63.80
2018-09-13T06:42:49.027Z,63.90
2018-09-13T06:44:52.029Z,64.50
2018-09-13T06:46:55.026Z,65.30
2018-09-13T06:48:58.037Z,65.80
2018-09-13T06:51:02.283Z,66.90
2018-09-13T06:53:05.456Z,67.50
2018-09-13T06:55:08.427Z,67.50
2018-09-13T06:57:12.207Z,67.40
2018-09-13T06:59:15.227Z,67.00
2018-09-13T07:01:18.205Z,67.30
2018-09-13T07:03:21.272Z,68.10
2018-09-13T07:05:24.584Z,68.20
2018-09-13T07:07:27.592Z,67.20
2018-09-13T07:09:31.635Z,67.20
2018-09-13T07:11:34.928Z,68.00
2018-09-13T07:13:38.383Z,67.10
2018-09-13T07:15:41.735Z,67.70
2018-09-13T07:17:44.802Z,67.30
2018-09-13T07:19:47.904Z,67.30
2018-09-13T07:21:50.904Z,68.30
2018-09-13T07:23:54.051Z,68.60
2018-09-13T07:25:57.175Z,68.70
2018-09-13T07:28:01.686Z,67.60
2018-09-13T07:30:04.961Z,68.10
2018-09-13T07:32:08.055Z,68.00
2018-09-13T07:34:11.086Z,67.70
2018-09-13T07:36:14.227Z,67.90
2018-09-13T07:38:17.302Z,68.60
2018-09-13T07:40:20.315Z,69.20
2018-09-13T07:42:23.384Z,69.40
2018-09-13T07:44:26.412Z,69.60
2018-09-13T07:46:30.977Z,68.70
2018-09-13T07:48:34.053Z,69.10
2018-09-13T07:50:37.093Z,68.90
2018-09-13T07:52:40.222Z,68.40
2018-09-13T07:54:43.225Z,68.50
2018-09-13T07:56:46.279Z,68.70
2018-09-13T07:58:49.309Z,68.90
2018-09-13T08:00:52.416Z,67.90
2018-09-13T08:02:55.460Z,68.50
2018-09-13T08:04:59.182Z,69.60
2018-09-13T08:07:02.247Z,69.40
2018-09-13T08:09:09.117Z,70.40
2018-09-13T08:11:12.213Z,70.70
2018-09-13T08:13:15.295Z,71.00
2018-09-13T08:15:18.424Z,70.70
2018-09-13T08:17:21.775Z,70.90
2018-09-13T08:19:24.784Z,70.80
2018-09-13T08:21:27.889Z,71.50
2018-09-13T08:23:32.131Z,71.50
2018-09-13T08:25:35.146Z,71.20
2018-09-13T08:27:38.244Z,71.50
2018-09-13T08:29:41.298Z,71.70
2018-09-13T08:31:44.426Z,71.50
2018-09-13T08:33:47.571Z,71.60
2018-09-13T08:35:50.911Z,72.70
2018-09-13T08:37:53.967Z,72.60
2018-09-13T08:39:57.013Z,72.70
2018-09-13T08:42:01.569Z,73.30
2018-09-13T08:44:04.592Z,73.40
2018-09-13T08:46:07.651Z,74.40
2018-09-13T08:48:10.776Z,74.20
2018-09-13T08:50:13.815Z,74.10
2018-09-13T08:52:16.828Z,74.50
2018-09-13T08:54:19.939Z,73.30
2018-09-13T08:56:22.965Z,74.70
2018-09-13T08:58:26.115Z,74.40
2018-09-13T09:00:30.603Z,75.00
2018-09-13T09:02:33.666Z,75.20
2018-09-13T09:04:36.970Z,73.40
2018-09-13T09:06:40.040Z,72.00
2018-09-13T09:08:43.075Z,72.60
2018-09-13T09:10:46.141Z,72.80
2018-09-13T09:12:49.248Z,73.60
2018-09-13T09:14:52.311Z,75.00
2018-09-13T09:16:55.588Z,75.10
2018-09-13T09:19:00.371Z,74.20
2018-09-13T09:21:03.479Z,72.60
2018-09-13T09:23:06.667Z,74.50
2018-09-13T09:25:09.739Z,73.60
2018-09-13T09:27:12.743Z,73.90
2018-09-13T09:29:15.973Z,74.30
2018-09-13T09:31:19.048Z,74.30
2018-09-13T09:33:22.128Z,73.80
2018-09-13T09:35:25.219Z,72.00
2018-09-13T09:37:29.783Z,73.50
2018-09-13T09:39:32.845Z,73.30
2018-09-13T09:41:36.283Z,74.20
2018-09-13T09:43:39.278Z,72.50
2018-09-13T09:45:42.608Z,72.20
2018-09-13T09:47:45.715Z,70.70
2018-09-13T09:49:48.727Z,72.10
2018-09-13T09:51:51.761Z,71.70
2018-09-13T09:53:54.872Z,71.20
2018-09-13T09:55:57.882Z,71.20
2018-09-13T09:58:02.097Z,73.10
2018-09-13T10:00:05.120Z,73.90
2018-09-13T10:02:16.749Z,73.70
2018-09-13T10:04:19.717Z,73.30
2018-09-13T10:06:22.807Z,71.50
2018-09-13T10:08:25.860Z,71.20
2018-09-13T10:10:30.660Z,71.80
2018-09-13T10:12:33.684Z,71.80
2018-09-13T10:14:36.799Z,72.60
2018-09-13T10:16:45.588Z,73.10
2018-09-13T10:18:53.286Z,72.30
2018-09-13T10:21:02.172Z,72.60
2018-09-13T10:23:11.588Z,72.10
2018-09-13T10:25:20.465Z,72.40
2018-09-13T10:27:29.178Z,72.10
2018-09-13T10:29:38.032Z,72.90
2018-09-13T10:31:46.828Z,72.60
2018-09-13T10:33:55.517Z,72.40
2018-09-13T10:36:04.363Z,72.90
2018-09-13T10:38:13.603Z,71.30
2018-09-13T10:40:22.268Z,73.50
2018-09-13T10:42:31.234Z,71.60
2018-09-13T10:44:39.988Z,72.20
2018-09-13T10:46:43.184Z,72.00
2018-09-13T10:48:51.822Z,72.30
2018-09-13T10:51:00.693Z,72.00
2018-09-13T10:53:07.236Z,72.60
2018-09-13T10:55:10.395Z,71.70
2018-09-13T10:57:19.383Z,73.10
2018-09-13T10:59:23.056Z,72.50
2018-09-13T11:01:26.136Z,73.30
2018-09-13T11:03:30.404Z,72.30
2018-09-13T11:05:33.408Z,69.80
2018-09-13T11:07:36.403Z,71.10
2018-09-13T11:09:39.628Z,71.10
2018-09-13T11:11:43.437Z,70.10
2018-09-13T11:13:51.166Z,70.30
2018-09-13T11:15:54.179Z,71.30
2018-09-13T11:17:57.307Z,69.90
2018-09-13T11:20:02.017Z,71.10
2018-09-13T11:22:05.425Z,71.10
2018-09-13T11:24:08.475Z,71.80
2018-09-13T11:26:11.547Z,71.50
2018-09-13T11:28:14.635Z,70.60
2018-09-13T11:30:17.635Z,70.50
2018-09-13T11:32:20.655Z,70.20
2018-09-13T11:34:24.135Z,71.00
2018-09-13T11:36:27.137Z,71.30
2018-09-13T11:38:31.620Z,71.00
2018-09-13T11:40:34.759Z,70.10
2018-09-13T11:42:37.647Z,70.40
2018-09-13T11:44:40.738Z,69.30
2018-09-13T11:46:43.751Z,70.40
2018-09-13T11:48:47.068Z,69.20
2018-09-13T11:50:50.112Z,71.70
2018-09-13T11:52:53.094Z,71.50
2018-09-13T11:54:56.220Z,71.00
2018-09-13T11:57:00.547Z,70.30
2018-09-13T11:59:03.703Z,70.20
2018-09-13T12:01:06.793Z,70.30
2018-09-13T12:03:10.446Z,71.50
2018-09-13T12:05:13.501Z,70.10
2018-09-13T12:07:17.027Z,71.00
2018-09-13T12:09:20.139Z,71.50
2018-09-13T12:11:23.247Z,71.00
2018-09-13T12:13:26.323Z,69.90
2018-09-13T12:15:31.635Z,71.20
2018-09-13T12:17:34.727Z,70.40
2018-09-13T12:19:37.733Z,70.40
2018-09-13T12:21:41.181Z,71.00
2018-09-13T12:23:44.186Z,70.00
2018-09-13T12:25:47.321Z,70.20
2018-09-13T12:27:50.412Z,69.90
2018-09-13T12:29:53.427Z,71.70
2018-09-13T12:31:56.895Z,70.40
2018-09-13T12:34:01.536Z,69.90
2018-09-13T12:36:04.682Z,69.50
2018-09-13T12:38:07.756Z,70.30
2018-09-13T12:40:10.816Z,71.10
2018-09-13T12:42:13.804Z,71.10
2018-09-13T12:44:16.872Z,69.70
2018-09-13T12:46:19.995Z,70.50
2018-09-13T12:48:23.049Z,70.80
2018-09-13T12:50:26.153Z,69.40
2018-09-13T12:52:30.805Z,68.20
2018-09-13T12:54:33.911Z,68.60
2018-09-13T12:56:37.342Z,70.40
2018-09-13T12:58:40.431Z,69.30
2018-09-13T13:00:43.591Z,67.80
2018-09-13T13:02:46.955Z,66.40
2018-09-13T13:04:50.037Z,66.00
2018-09-13T13:06:53.307Z,66.50
2018-09-13T13:08:56.419Z,67.10
2018-09-13T13:10:59.899Z,67.20
2018-09-13T13:13:03.059Z,67.60
2018-09-13T13:15:06.651Z,67.90
2018-09-13T13:17:09.772Z,67.00
2018-09-13T13:19:13.265Z,68.60
2018-09-13T13:21:16.416Z,68.10
2018-09-13T13:23:19.443Z,67.40
2018-09-13T13:25:22.574Z,68.40
2018-09-13T13:27:25.672Z,66.50
2018-09-13T13:29:30.476Z,65.30
2018-09-13T13:31:33.602Z,66.50
2018-09-13T13:33:36.656Z,65.80
2018-09-13T13:35:40.005Z,66.40
2018-09-13T13:37:43.332Z,66.00
2018-09-13T13:39:46.449Z,66.90
2018-09-13T13:41:49.572Z,65.20
2018-09-13T13:43:52.748Z,64.20
2018-09-13T13:45:55.691Z,65.50
2018-09-13T13:48:00.304Z,65.80
2018-09-13T13:50:03.425Z,63.90
2018-09-13T13:52:06.496Z,65.70
2018-09-13T13:54:09.527Z,65.30
2018-09-13T13:56:12.804Z,64.30
2018-09-13T13:58:15.933Z,65.30
2018-09-13T14:00:18.987Z,63.70
2018-09-13T14:02:22.214Z,65.00
2018-09-13T14:04:25.294Z,64.70
2018-09-13T14:06:30.072Z,64.10
2018-09-13T14:08:33.219Z,64.00
2018-09-13T14:10:36.276Z,63.70
2018-09-13T14:12:39.360Z,64.20
2018-09-13T14:14:42.880Z,64.50
2018-09-13T14:16:45.910Z,65.30
2018-09-13T14:18:49.115Z,65.20
2018-09-13T14:20:52.284Z,65.20
2018-09-13T14:22:55.293Z,65.80
2018-09-13T14:25:00.175Z,65.90
2018-09-13T14:27:03.294Z,65.40
2018-09-13T14:29:06.559Z,63.40
2018-09-13T14:31:09.608Z,64.20
2018-09-13T14:33:12.696Z,64.00
2018-09-13T14:35:15.823Z,64.00
2018-09-13T14:37:18.979Z,64.10
2018-09-13T14:39:22.155Z,64.30
2018-09-13T14:41:25.420Z,64.10
2018-09-13T14:43:30.746Z,64.30
2018-09-13T14:45:33.812Z,65.00
2018-09-13T14:47:37.160Z,65.20
2018-09-13T14:49:40.236Z,67.10
2018-09-13T14:51:43.439Z,66.30
2018-09-13T14:53:46.642Z,64.20
2018-09-13T14:55:49.772Z,66.10
2018-09-13T14:57:52.950Z,65.30
2018-09-13T14:59:55.953Z,64.10
2018-09-13T15:02:00.331Z,64.70
2018-09-13T15:04:03.387Z,64.60
2018-09-13T15:06:06.571Z,65.90
2018-09-13T15:08:09.755Z,64.00
2018-09-13T15:10:12.980Z,64.50
2018-09-13T15:12:15.971Z,63.80
2018-09-13T15:14:19.020Z,63.70
2018-09-13T15:16:22.166Z,64.60
2018-09-13T15:18:25.359Z,65.00
2018-09-13T15:20:28.846Z,65.40
2018-09-13T15:22:31.866Z,65.10
2018-09-13T15:24:34.894Z,64.90
2018-09-13T15:26:37.999Z,63.90
2018-09-13T15:28:41.290Z,64.30
2018-09-13T15:30:44.448Z,65.90
2018-09-13T15:32:47.678Z,66.00
2018-09-13T15:34:50.659Z,65.40
2018-09-13T15:36:53.908Z,65.60
2018-09-13T15:38:57.023Z,65.60
2018-09-13T15:41:01.655Z,65.80
2018-09-13T15:43:04.833Z,65.30
2018-09-13T15:45:08.027Z,65.50
2018-09-13T15:47:11.247Z,65.10
2018-09-13T15:49:14.329Z,64.30
2018-09-13T15:51:17.509Z,63.70
2018-09-13T15:53:20.572Z,64.70
2018-09-13T15:55:23.961Z,64.40
2018-09-13T15:57:27.123Z,64.90
2018-09-13T15:59:31.887Z,65.20
2018-09-13T16:01:35.038Z,65.20
2018-09-13T16:03:38.063Z,65.10
2018-09-13T16:05:41.031Z,65.60
2018-09-13T16:07:44.093Z,65.20
2018-09-13T16:09:47.083Z,65.40
2018-09-13T16:11:50.077Z,64.60
2018-09-13T16:13:53.072Z,65.70
2018-09-13T16:15:56.183Z,66.00
2018-09-13T16:17:59.834Z,66.30
2018-09-13T16:20:02.974Z,66.30
2018-09-13T16:22:06.252Z,66.10
2018-09-13T16:24:09.263Z,66.20
2018-09-13T16:26:12.309Z,65.50
2018-09-13T16:28:15.380Z,64.60
2018-09-13T16:30:18.380Z,64.90
2018-09-13T16:32:22.645Z,65.00
2018-09-13T16:34:25.698Z,64.20
2018-09-13T16:36:29.711Z,65.10
2018-09-13T16:38:38.467Z,64.70
2018-09-13T16:40:47.372Z,64.70
2018-09-13T16:42:56.136Z,64.80
2018-09-13T16:45:00.607Z,65.10
2018-09-13T16:47:09.423Z,64.80
2018-09-13T16:49:12.512Z,64.80
2018-09-13T16:51:15.581Z,64.90
2018-09-13T16:53:18.631Z,65.00
2018-09-13T16:55:21.740Z,65.70
2018-09-13T16:57:24.785Z,65.40
2018-09-13T16:59:30.670Z,65.60
2018-09-13T17:01:33.744Z,65.90
2018-09-13T17:03:36.819Z,65.70
2018-09-13T17:05:40.952Z,66.40
2018-09-13T17:07:44.243Z,66.60
2018-09-13T17:09:47.440Z,66.80
2018-09-13T17:11:50.471Z,66.50
2018-09-13T17:13:53.568Z,66.40
2018-09-13T17:15:56.639Z,66.50
2018-09-13T17:18:01.114Z,67.00
2018-09-13T17:20:04.279Z,66.60
2018-09-13T17:22:07.687Z,67.00
2018-09-13T17:24:10.748Z,66.80
2018-09-13T17:26:13.804Z,67.30
2018-09-13T17:28:16.843Z,67.20
2018-09-13T17:30:19.876Z,67.50
2018-09-13T17:32:22.897Z,68.00
2018-09-13T17:34:25.940Z,68.10
2018-09-13T17:36:30.162Z,68.40
2018-09-13T17:38:33.181Z,67.40
2018-09-13T17:40:36.174Z,67.20
2018-09-13T17:42:39.264Z,68.80
2018-09-13T17:44:42.246Z,68.30
2018-09-13T17:46:45.254Z,68.10
2018-09-13T17:48:48.287Z,67.40
2018-09-13T17:50:51.335Z,67.00
2018-09-13T17:52:54.380Z,67.70
2018-09-13T17:54:57.399Z,68.00
2018-09-13T17:57:01.819Z,67.70
2018-09-13T17:59:04.859Z,67.90
2018-09-13T18:01:07.870Z,68.50
2018-09-13T18:03:10.975Z,68.90
2018-09-13T18:05:13.984Z,68.20
2018-09-13T18:07:17.016Z,68.90
2018-09-13T18:09:23.651Z,68.60
2018-09-13T18:11:26.661Z,69.10
2018-09-13T18:13:31.367Z,69.40
2018-09-13T18:15:34.440Z,68.90
2018-09-13T18:17:37.484Z,68.60
2018-09-13T18:19:40.491Z,69.40
2018-09-13T18:21:43.519Z,68.70
2018-09-13T18:23:46.576Z,68.70
2018-09-13T18:25:49.587Z,68.70
2018-09-13T18:27:52.585Z,68.60
2018-09-13T18:29:55.539Z,68.40
2018-09-13T18:31:58.887Z,68.20
2018-09-13T18:34:01.913Z,68.30
2018-09-13T18:36:04.910Z,68.10
2018-09-13T18:38:08.179Z,68.20
2018-09-13T18:40:11.247Z,68.20
2018-09-13T18:42:14.212Z,68.00
2018-09-13T18:44:17.271Z,69.00
2018-09-13T18:46:20.294Z,68.60
2018-09-13T18:48:23.299Z,68.60
2018-09-13T18:50:26.303Z,68.90
2018-09-13T18:52:31.027Z,69.60
2018-09-13T18:54:34.043Z,69.60
2018-09-13T18:56:37.046Z,69.80
2018-09-13T18:58:40.098Z,69.80
2018-09-13T19:00:43.128Z,69.40
2018-09-13T19:02:46.107Z,69.20
2018-09-13T19:04:49.136Z,68.90
2018-09-13T19:06:52.111Z,68.70
2018-09-13T19:08:55.119Z,69.20
2018-09-13T19:10:59.981Z,68.50
2018-09-13T19:13:02.968Z,69.50
2018-09-13T19:15:06.157Z,69.20
2018-09-13T19:17:09.189Z,69.60
2018-09-13T19:19:12.219Z,69.50
2018-09-13T19:21:15.243Z,69.50
2018-09-13T19:23:18.283Z,69.10
2018-09-13T19:25:21.320Z,70.00
2018-09-13T19:27:24.392Z,69.60
2018-09-13T19:29:27.489Z,69.90
2018-09-13T19:31:31.680Z,69.90
2018-09-13T19:33:34.711Z,69.20
2018-09-13T19:35:37.744Z,70.30
2018-09-13T19:37:40.924Z,70.30
2018-09-13T19:39:43.985Z,70.40
2018-09-13T19:41:47.071Z,70.20
2018-09-13T19:43:50.153Z,70.30
2018-09-13T19:45:53.184Z,70.30
2018-09-13T19:47:56.278Z,70.80
2018-09-13T19:50:00.908Z,70.40
2018-09-13T19:52:03.915Z,71.20
2018-09-13T19:54:06.980Z,70.00
2018-09-13T19:56:09.976Z,70.50
2018-09-13T19:58:12.999Z,70.80
2018-09-13T20:00:15.946Z,70.60
2018-09-13T20:02:19.043Z,70.70
2018-09-13T20:04:22.063Z,70.20
2018-09-13T20:06:25.064Z,70.80
2018-09-13T20:08:29.759Z,70.40
2018-09-13T20:10:32.807Z,70.50
2018-09-13T20:12:35.880Z,70.50
2018-09-13T20:14:38.919Z,70.40
2018-09-13T20:16:41.921Z,70.30
2018-09-13T20:18:45.159Z,70.60
2018-09-13T20:20:48.168Z,70.80
2018-09-13T20:22:51.192Z,70.60
2018-09-13T20:24:54.228Z,70.10
2018-09-13T20:26:57.194Z,71.00
2018-09-13T20:29:02.386Z,70.60
2018-09-13T20:31:05.564Z,70.00
2018-09-13T20:33:08.655Z,70.50
2018-09-13T20:35:11.600Z,71.10
2018-09-13T20:37:14.551Z,70.90
2018-09-13T20:39:17.571Z,70.90
2018-09-13T20:41:20.523Z,71.50
2018-09-13T20:43:23.558Z,71.10
2018-09-13T20:45:26.586Z,71.20
2018-09-13T20:47:31.277Z,70.60
2018-09-13T20:49:34.235Z,72.00
2018-09-13T20:51:37.250Z,71.30
2018-09-13T20:53:40.335Z,72.10
2018-09-13T20:55:43.375Z,71.10
2018-09-13T20:57:46.435Z,72.00
2018-09-13T20:59:49.403Z,71.50
2018-09-13T21:01:52.354Z,72.10
2018-09-13T21:03:55.368Z,71.60
2018-09-13T21:05:59.571Z,71.30
2018-09-13T21:08:02.593Z,71.40
2018-09-13T21:10:05.624Z,73.20
2018-09-13T21:12:08.628Z,72.60
2018-09-13T21:14:11.616Z,71.30
2018-09-13T21:16:14.776Z,72.90
2018-09-13T21:18:17.793Z,73.20
2018-09-13T21:20:20.948Z,72.30
2018-09-13T21:22:23.946Z,72.30
2018-09-13T21:24:26.976Z,72.90
2018-09-13T21:26:31.804Z,73.00
2018-09-13T21:28:34.767Z,72.80
2018-09-13T21:30:37.720Z,72.10
2018-09-13T21:32:40.717Z,72.80
2018-09-13T21:34:43.680Z,72.70
2018-09-13T21:36:46.675Z,73.20
2018-09-13T21:38:49.700Z,72.40
2018-09-13T21:40:52.643Z,73.10
2018-09-13T21:42:55.620Z,72.90
2018-09-13T21:45:00.203Z,73.30
2018-09-13T21:47:03.237Z,73.50
2018-09-13T21:49:06.281Z,73.50
2018-09-13T21:51:09.571Z,72.50
2018-09-13T21:53:12.567Z,73.60
2018-09-13T21:55:15.567Z,73.80
2018-09-13T21:57:18.695Z,74.10
2018-09-13T21:59:21.739Z,73.70
2018-09-13T22:01:24.759Z,73.40
2018-09-13T22:03:27.973Z,73.40
2018-09-13T22:05:32.017Z,73.90
2018-09-13T22:07:35.602Z,74.30
2018-09-13T22:09:38.652Z,73.80
2018-09-13T22:11:41.720Z,74.50
2018-09-13T22:13:44.715Z,74.60
2018-09-13T22:15:47.728Z,73.90
2018-09-13T22:17:50.771Z,74.70
2018-09-13T22:19:53.780Z,75.10
2018-09-13T22:21:56.811Z,74.90
2018-09-13T22:24:01.223Z,73.90
2018-09-13T22:26:04.231Z,74.00
2018-09-13T22:28:07.299Z,73.80
2018-09-13T22:30:10.377Z,73.90
2018-09-13T22:32:13.506Z,74.00
2018-09-13T22:34:16.592Z,73.60
2018-09-13T22:36:19.673Z,74.10
2018-09-13T22:38:22.712Z,74.90
2018-09-13T22:40:26.015Z,73.80
2018-09-13T22:42:30.807Z,74.00
2018-09-13T22:44:39.554Z,73.80
2018-09-13T22:46:42.720Z,74.20
2018-09-13T22:48:45.818Z,74.30
2018-09-13T22:50:48.926Z,74.00
2018-09-13T22:52:51.994Z,74.00
2018-09-13T22:54:54.978Z,73.40
2018-09-13T22:56:57.980Z,73.60
2018-09-13T22:59:01.016Z,74.00
2018-09-13T23:01:04.066Z,73.80
2018-09-13T23:03:07.393Z,75.00
2018-09-13T23:05:10.524Z,73.70
2018-09-13T23:07:13.531Z,74.50
2018-09-13T23:09:16.560Z,74.30
2018-09-13T23:11:19.583Z,74.30
2018-09-13T23:13:22.653Z,74.70
2018-09-13T23:15:25.698Z,74.60
2018-09-13T23:17:30.111Z,74.70
2018-09-13T23:19:33.176Z,74.60
2018-09-13T23:21:36.257Z,74.40
2018-09-13T23:23:39.274Z,74.20
2018-09-13T23:25:42.486Z,74.70
2018-09-13T23:27:45.584Z,74.30
2018-09-13T23:29:48.555Z,74.40
2018-09-13T23:31:51.620Z,74.40
2018-09-13T23:33:54.783Z,74.80
2018-09-13T23:35:57.768Z,75.20
2018-09-13T23:38:02.417Z,74.20
2018-09-13T23:40:05.663Z,74.10
2018-09-13T23:42:08.528Z,74.80
2018-09-13T23:44:11.572Z,75.30
2018-09-13T23:46:14.676Z,75.10
2018-09-13T23:48:17.745Z,74.10
2018-09-13T23:50:20.804Z,75.10
2018-09-13T23:52:23.811Z,75.10
2018-09-13T23:54:26.827Z,74.20
2018-09-13T23:56:31.092Z,75.10
2018-09-13T23:58:34.087Z,74.80
